createdAt,value
2023-09-09T00:00:11.499Z,99656.85
2023-09-09T00:03:03.147Z,99662.06
2023-09-09T00:05:31.580Z,99663.44
2023-09-09T00:07:59.762Z,99661.91
2023-09-09T00:10:27.911Z,99664.23
2023-09-09T00:12:56.049Z,99661.02
2023-09-09T00:15:24.264Z,99664.40
2023-09-09T00:17:52.575Z,99663.47
2023-09-09T00:20:32.186Z,99665.43
2023-09-09T00:23:04.324Z,99664.44
2023-09-09T00:25:32.589Z,99661.58
2023-09-09T00:28:00.908Z,99658.20
2023-09-09T00:30:30.483Z,99657.38
2023-09-09T00:33:00.192Z,99655.15
2023-09-09T00:35:28.572Z,99652.77
2023-09-09T00:37:56.914Z,99653.33
2023-09-09T00:40:25.582Z,99653.80
2023-09-09T00:42:53.852Z,99652.11
2023-09-09T00:45:22.149Z,99655.96
2023-09-09T00:47:51.134Z,99655.70
2023-09-09T00:50:20.863Z,99655.07
2023-09-09T00:52:49.700Z,99652.44
2023-09-09T00:55:18.164Z,99651.17
2023-09-09T00:57:46.531Z,99646.55
2023-09-09T01:00:15.003Z,99650.25
2023-09-09T01:02:43.542Z,99652.73
2023-09-09T01:05:12.337Z,99652.90
2023-09-09T01:07:45.665Z,99653.61
2023-09-09T01:10:16.441Z,99656.67
2023-09-09T01:12:45.169Z,99659.20
2023-09-09T01:15:14.869Z,99657.39
2023-09-09T01:17:43.694Z,99657.26
2023-09-09T01:20:16.040Z,99653.54
2023-09-09T01:22:51.521Z,99654.16
2023-09-09T01:25:19.770Z,99651.16
2023-09-09T01:27:48.032Z,99649.92
2023-09-09T01:30:17.089Z,99647.03
2023-09-09T01:32:45.361Z,99647.57
2023-09-09T01:35:14.733Z,99651.67
2023-09-09T01:37:42.922Z,99651.38
2023-09-09T01:40:14.015Z,99649.83
2023-09-09T01:42:42.619Z,99648.61
2023-09-09T01:45:13.373Z,99651.51
2023-09-09T01:47:41.828Z,99651.36
2023-09-09T01:50:10.373Z,99655.81
2023-09-09T01:52:38.693Z,99654.61
2023-09-09T01:55:07.186Z,99650.88
2023-09-09T01:57:36.086Z,99649.17
2023-09-09T02:00:11.285Z,99649.33
2023-09-09T02:02:42.214Z,99649.36
2023-09-09T02:05:12.171Z,99647.27
2023-09-09T02:07:40.460Z,99647.66
2023-09-09T02:10:11.857Z,99656.69
2023-09-09T02:12:41.556Z,99655.13
2023-09-09T02:15:12.614Z,99655.13
2023-09-09T02:17:40.958Z,99653.10
2023-09-09T02:20:11.013Z,99655.19
2023-09-09T02:22:39.562Z,99656.59
2023-09-09T02:25:09.684Z,99656.91
2023-09-09T02:27:38.212Z,99655.80
2023-09-09T02:30:07.115Z,99654.17
2023-09-09T02:32:35.529Z,99652.70
2023-09-09T02:35:04.433Z,99659.20
2023-09-09T02:37:32.692Z,99663.02
2023-09-09T02:40:00.896Z,99660.65
2023-09-09T02:42:29.303Z,99656.00
2023-09-09T02:44:57.590Z,99655.61
2023-09-09T02:47:25.835Z,99652.53
2023-09-09T02:49:54.898Z,99653.00
2023-09-09T02:52:23.756Z,99653.83
2023-09-09T02:54:52.236Z,99657.53
2023-09-09T02:57:20.484Z,99660.73
2023-09-09T02:59:48.848Z,99660.52
2023-09-09T03:02:17.177Z,99661.64
2023-09-09T03:04:45.439Z,99661.45
2023-09-09T03:07:13.782Z,99660.63
2023-09-09T03:09:41.989Z,99663.09
2023-09-09T03:12:10.961Z,99665.17
2023-09-09T03:14:39.415Z,99674.59
2023-09-09T03:17:08.146Z,99675.09
2023-09-09T03:19:36.397Z,99672.38
2023-09-09T03:22:04.931Z,99673.16
2023-09-09T03:24:33.237Z,99676.75
2023-09-09T03:27:01.445Z,99679.06
2023-09-09T03:29:29.777Z,99679.61
2023-09-09T03:31:58.187Z,99674.23
2023-09-09T03:34:26.407Z,99676.98
2023-09-09T03:36:54.588Z,99677.48
2023-09-09T03:39:23.354Z,99672.69
2023-09-09T03:41:52.039Z,99674.95
2023-09-09T03:44:20.422Z,99675.73
2023-09-09T03:46:49.414Z,99673.16
2023-09-09T03:49:17.691Z,99671.11
2023-09-09T03:51:46.002Z,99672.94
2023-09-09T03:54:14.157Z,99675.73
2023-09-09T03:56:42.331Z,99675.30
2023-09-09T03:59:10.782Z,99674.59
2023-09-09T04:01:38.998Z,99679.46
2023-09-09T04:04:07.366Z,99676.88
2023-09-09T04:06:35.745Z,99675.67
2023-09-09T04:09:04.176Z,99674.70
2023-09-09T04:11:32.870Z,99673.27
2023-09-09T04:14:21.219Z,99670.48
2023-09-09T04:16:49.535Z,99670.05
2023-09-09T04:19:17.931Z,99670.83
2023-09-09T04:21:46.112Z,99669.80
2023-09-09T04:24:14.511Z,99670.41
2023-09-09T04:26:42.858Z,99673.99
2023-09-09T04:29:11.097Z,99674.15
2023-09-09T04:31:39.375Z,99674.11
2023-09-09T04:34:07.689Z,99675.88
2023-09-09T04:36:35.825Z,99678.27
2023-09-09T04:39:04.354Z,99678.33
2023-09-09T04:41:32.696Z,99678.75
2023-09-09T04:44:00.811Z,99678.30
2023-09-09T04:46:29.145Z,99678.64
2023-09-09T04:48:57.513Z,99677.02
2023-09-09T04:51:25.677Z,99676.59
2023-09-09T04:53:54.121Z,99678.27
2023-09-09T04:56:22.447Z,99675.84
2023-09-09T04:58:51.454Z,99677.08
2023-09-09T05:01:19.873Z,99680.10
2023-09-09T05:03:48.164Z,99678.20
2023-09-09T05:06:16.443Z,99673.67
2023-09-09T05:08:44.861Z,99670.95
2023-09-09T05:11:13.430Z,99673.54
2023-09-09T05:13:41.677Z,99675.02
2023-09-09T05:16:10.173Z,99674.36
2023-09-09T05:18:38.514Z,99678.45
2023-09-09T05:21:06.848Z,99684.64
2023-09-09T05:23:37.283Z,99687.33
2023-09-09T05:26:05.950Z,99694.09
2023-09-09T05:28:34.225Z,99692.09
2023-09-09T05:31:07.529Z,99691.09
2023-09-09T05:33:36.519Z,99690.14
2023-09-09T05:36:05.400Z,99687.92
2023-09-09T05:38:33.853Z,99687.23
2023-09-09T05:41:01.983Z,99685.31
2023-09-09T05:43:30.279Z,99683.80
2023-09-09T05:46:01.541Z,99687.05
2023-09-09T05:48:30.141Z,99687.85
2023-09-09T05:50:59.045Z,99689.09
2023-09-09T05:53:27.588Z,99690.36
2023-09-09T05:55:56.106Z,99694.67
2023-09-09T05:58:24.473Z,99696.10
2023-09-09T06:00:52.869Z,99696.58
2023-09-09T06:03:21.311Z,99699.41
2023-09-09T06:05:49.704Z,99704.39
2023-09-09T06:08:17.901Z,99702.66
2023-09-09T06:10:46.399Z,99704.23
2023-09-09T06:13:14.771Z,99708.61
2023-09-09T06:15:43.128Z,99712.73
2023-09-09T06:18:11.438Z,99713.66
2023-09-09T06:20:39.802Z,99718.17
2023-09-09T06:23:08.072Z,99713.88
2023-09-09T06:25:37.519Z,99715.46
2023-09-09T06:28:06.082Z,99723.06
2023-09-09T06:30:35.824Z,99720.02
2023-09-09T06:33:05.467Z,99723.17
2023-09-09T06:35:34.870Z,99718.27
2023-09-09T06:38:04.083Z,99718.53
2023-09-09T06:40:33.334Z,99717.98
2023-09-09T06:43:01.465Z,99721.58
2023-09-09T06:45:29.695Z,99725.03
2023-09-09T06:47:57.925Z,99724.14
2023-09-09T06:50:26.264Z,99722.85
2023-09-09T06:52:54.641Z,99719.36
2023-09-09T06:55:22.895Z,99722.70
2023-09-09T06:57:51.092Z,99724.48
2023-09-09T07:00:19.460Z,99724.48
2023-09-09T07:02:47.774Z,99723.16
2023-09-09T07:05:20.745Z,99726.01
2023-09-09T07:07:48.995Z,99727.73
2023-09-09T07:10:17.091Z,99729.96
2023-09-09T07:12:45.260Z,99727.34
2023-09-09T07:15:13.595Z,99725.16
2023-09-09T07:17:44.877Z,99726.79
2023-09-09T07:20:13.866Z,99725.41
2023-09-09T07:22:42.208Z,99724.61
2023-09-09T07:25:10.824Z,99725.65
2023-09-09T07:27:39.112Z,99726.36
2023-09-09T07:30:08.486Z,99721.83
2023-09-09T07:32:36.946Z,99721.19
2023-09-09T07:35:05.838Z,99721.39
2023-09-09T07:37:34.273Z,99719.98
2023-09-09T07:40:02.536Z,99723.63
2023-09-09T07:42:30.854Z,99715.82
2023-09-09T07:44:59.053Z,99716.26
2023-09-09T07:47:27.172Z,99716.11
2023-09-09T07:49:55.418Z,99715.70
2023-09-09T07:52:24.148Z,99717.70
2023-09-09T07:54:53.413Z,99714.98
2023-09-09T07:57:21.684Z,99716.75
2023-09-09T07:59:50.913Z,99717.20
2023-09-09T08:02:19.176Z,99714.02
2023-09-09T08:04:48.640Z,99713.23
2023-09-09T08:07:17.207Z,99710.55
2023-09-09T08:09:45.669Z,99706.89
2023-09-09T08:12:13.929Z,99706.93
2023-09-09T08:14:43.735Z,99702.31
2023-09-09T08:17:11.934Z,99701.98
2023-09-09T08:19:40.305Z,99701.10
2023-09-09T08:22:09.898Z,99702.11
2023-09-09T08:24:38.357Z,99697.35
2023-09-09T08:27:07.095Z,99694.87
2023-09-09T08:29:35.397Z,99691.84
2023-09-09T08:32:03.816Z,99691.09
2023-09-09T08:34:32.028Z,99690.59
2023-09-09T08:37:00.244Z,99688.80
2023-09-09T08:39:29.268Z,99691.21
2023-09-09T08:42:21.783Z,99692.50
2023-09-09T08:45:12.510Z,99693.98
2023-09-09T08:47:42.893Z,99693.09
2023-09-09T08:50:15.295Z,99690.49
2023-09-09T08:52:45.185Z,99690.70
2023-09-09T08:55:13.731Z,99689.66
2023-09-09T08:57:41.950Z,99690.27
2023-09-09T09:00:12.886Z,99688.34
2023-09-09T09:02:41.489Z,99683.95
2023-09-09T09:05:11.611Z,99677.89
2023-09-09T09:07:39.974Z,99674.77
2023-09-09T09:10:08.764Z,99666.02
2023-09-09T09:12:38.972Z,99665.14
2023-09-09T09:15:07.442Z,99665.36
2023-09-09T09:17:40.929Z,99661.17
2023-09-09T09:20:30.863Z,99664.17
2023-09-09T09:23:05.382Z,99660.31
2023-09-09T09:25:38.556Z,99656.23
2023-09-09T09:28:06.869Z,99655.91
2023-09-09T09:30:35.908Z,99650.95
2023-09-09T09:33:04.432Z,99649.79
2023-09-09T09:35:34.778Z,99650.71
2023-09-09T09:38:11.072Z,99648.61
2023-09-09T09:40:40.498Z,99650.09
2023-09-09T09:43:19.917Z,99646.85
2023-09-09T09:45:48.631Z,99647.25
2023-09-09T09:48:35.437Z,99648.98
2023-09-09T09:51:03.816Z,99647.02
2023-09-09T09:53:33.608Z,99647.56
2023-09-09T09:56:04.328Z,99645.24
2023-09-09T09:58:37.286Z,99643.59
2023-09-09T10:01:07.732Z,99642.33
2023-09-09T10:03:48.835Z,99645.32
2023-09-09T10:06:24.299Z,99641.86
2023-09-09T10:09:00.380Z,99642.48
2023-09-09T10:11:35.658Z,99641.33
2023-09-09T10:14:13.839Z,99641.75
2023-09-09T10:16:44.124Z,99641.02
2023-09-09T10:19:17.573Z,99640.58
2023-09-09T10:21:48.451Z,99636.95
2023-09-09T10:24:17.631Z,99636.14
2023-09-09T10:26:48.191Z,99633.55
2023-09-09T10:29:18.645Z,99629.55
2023-09-09T10:31:49.509Z,99629.60
2023-09-09T10:34:19.727Z,99628.20
2023-09-09T10:37:01.110Z,99624.80
2023-09-09T10:39:32.632Z,99623.61
2023-09-09T10:42:02.312Z,99622.42
2023-09-09T10:44:30.663Z,99623.05
2023-09-09T10:46:59.342Z,99621.02
2023-09-09T10:49:32.117Z,99619.58
2023-09-09T10:52:04.721Z,99617.63
2023-09-09T10:54:36.132Z,99617.42
2023-09-09T10:57:04.475Z,99613.80
2023-09-09T10:59:33.797Z,99614.27
2023-09-09T11:02:25.457Z,99613.89
2023-09-09T11:05:11.892Z,99612.96
2023-09-09T11:07:42.382Z,99608.80
2023-09-09T11:10:15.938Z,99607.60
2023-09-09T11:12:54.290Z,99608.48
2023-09-09T11:15:26.719Z,99607.89
2023-09-09T11:17:55.228Z,99607.90
2023-09-09T11:20:23.656Z,99606.05
2023-09-09T11:22:52.649Z,99608.59
2023-09-09T11:25:21.546Z,99604.98
2023-09-09T11:27:52.062Z,99604.14
2023-09-09T11:30:20.357Z,99596.85
2023-09-09T11:32:50.631Z,99594.44
2023-09-09T11:35:19.342Z,99589.40
2023-09-09T11:37:47.601Z,99587.20
2023-09-09T11:40:18.793Z,99585.64
2023-09-09T11:42:53.667Z,99584.57
2023-09-09T11:45:23.825Z,99581.40
2023-09-09T11:47:52.148Z,99578.98
2023-09-09T11:50:20.493Z,99579.96
2023-09-09T11:52:48.759Z,99577.42
2023-09-09T11:55:18.789Z,99574.59
2023-09-09T11:57:57.981Z,99572.89
2023-09-09T12:00:26.688Z,99572.41
2023-09-09T12:02:54.798Z,99577.46
2023-09-09T12:05:33.423Z,99575.15
2023-09-09T12:08:04.762Z,99576.33
2023-09-09T12:10:36.458Z,99576.21
2023-09-09T12:13:06.143Z,99575.98
2023-09-09T12:15:34.584Z,99570.63
2023-09-09T12:18:11.045Z,99568.92
2023-09-09T12:20:59.069Z,99573.83
2023-09-09T12:23:33.279Z,99573.61
2023-09-09T12:26:12.690Z,99573.63
2023-09-09T12:28:42.770Z,99569.98
2023-09-09T12:31:12.680Z,99569.20
2023-09-09T12:33:45.402Z,99563.48
2023-09-09T12:36:22.364Z,99566.20
2023-09-09T12:38:52.240Z,99566.63
2023-09-09T12:41:22.609Z,99562.45
2023-09-09T12:43:53.929Z,99563.67
2023-09-09T12:46:28.733Z,99559.69
2023-09-09T12:49:01.624Z,99561.34
2023-09-09T12:51:32.019Z,99563.11
2023-09-09T12:54:00.482Z,99566.70
2023-09-09T12:56:28.887Z,99568.33
2023-09-09T12:58:57.170Z,99567.43
2023-09-09T13:01:25.325Z,99565.94
2023-09-09T13:03:53.693Z,99562.41
2023-09-09T13:06:23.260Z,99562.68
2023-09-09T13:08:51.521Z,99565.64
2023-09-09T13:11:19.836Z,99566.40
2023-09-09T13:13:48.195Z,99566.04
2023-09-09T13:16:17.025Z,99566.27
2023-09-09T13:18:45.455Z,99564.31
2023-09-09T13:21:13.804Z,99564.50
2023-09-09T13:23:43.050Z,99561.95
2023-09-09T13:26:11.241Z,99559.16
2023-09-09T13:28:39.553Z,99558.70
2023-09-09T13:31:11.195Z,99559.52
2023-09-09T13:33:39.769Z,99556.75
2023-09-09T13:36:10.591Z,99554.52
2023-09-09T13:38:39.114Z,99555.75
2023-09-09T13:41:33.323Z,99557.38
2023-09-09T13:44:01.466Z,99557.13
2023-09-09T13:46:29.947Z,99553.55
2023-09-09T13:48:58.173Z,99555.83
2023-09-09T13:51:28.588Z,99553.51
2023-09-09T13:53:58.162Z,99555.44
2023-09-09T13:56:26.478Z,99558.02
2023-09-09T13:58:57.170Z,99558.64
2023-09-09T14:01:25.881Z,99557.60
2023-09-09T14:03:55.008Z,99553.73
2023-09-09T14:06:28.759Z,99554.31
2023-09-09T14:08:57.996Z,99553.45
2023-09-09T14:11:26.257Z,99552.81
2023-09-09T14:13:54.435Z,99547.13
2023-09-09T14:16:22.787Z,99542.43
2023-09-09T14:18:51.214Z,99543.09
2023-09-09T14:21:20.397Z,99543.42
2023-09-09T14:23:48.694Z,99542.44
2023-09-09T14:26:20.994Z,99541.65
2023-09-09T14:28:49.394Z,99546.14
2023-09-09T14:31:19.621Z,99548.08
2023-09-09T14:33:47.834Z,99544.46
2023-09-09T14:36:15.986Z,99543.59
2023-09-09T14:38:46.531Z,99545.95
2023-09-09T14:41:14.911Z,99540.30
2023-09-09T14:43:43.131Z,99539.23
2023-09-09T14:46:11.315Z,99540.45
2023-09-09T14:48:58.176Z,99540.63
2023-09-09T14:51:32.717Z,99538.83
2023-09-09T14:54:03.986Z,99541.86
2023-09-09T14:56:33.404Z,99546.75
2023-09-09T14:59:01.570Z,99544.10
2023-09-09T15:01:29.781Z,99541.44
2023-09-09T15:03:58.119Z,99536.97
2023-09-09T15:06:26.390Z,99533.48
2023-09-09T15:08:54.531Z,99531.98
2023-09-09T15:11:22.774Z,99531.38
2023-09-09T15:13:50.977Z,99531.80
2023-09-09T15:16:21.887Z,99531.02
2023-09-09T15:18:50.254Z,99528.60
2023-09-09T15:21:18.514Z,99525.19
2023-09-09T15:23:47.439Z,99524.36
2023-09-09T15:26:16.162Z,99523.89
2023-09-09T15:28:44.337Z,99522.25
2023-09-09T15:31:12.564Z,99521.73
2023-09-09T15:33:40.855Z,99520.82
2023-09-09T15:36:09.140Z,99517.89
2023-09-09T15:38:42.461Z,99517.15
2023-09-09T15:41:11.856Z,99520.77
2023-09-09T15:43:46.136Z,99522.75
2023-09-09T15:46:15.412Z,99521.48
2023-09-09T15:48:43.725Z,99519.00
2023-09-09T15:51:12.019Z,99516.29
2023-09-09T15:53:40.260Z,99515.36
2023-09-09T15:56:12.767Z,99522.66
2023-09-09T15:58:41.786Z,99525.26
2023-09-09T16:01:10.963Z,99525.73
2023-09-09T16:03:39.263Z,99531.41
2023-09-09T16:06:09.217Z,99535.80
2023-09-09T16:08:40.060Z,99536.04
2023-09-09T16:11:08.737Z,99533.83
2023-09-09T16:13:37.517Z,99533.70
2023-09-09T16:16:07.812Z,99531.71
2023-09-09T16:18:39.054Z,99528.52
2023-09-09T16:21:08.348Z,99532.73
2023-09-09T16:23:36.748Z,99533.66
2023-09-09T16:26:06.008Z,99534.08
2023-09-09T16:28:34.407Z,99532.31
2023-09-09T16:31:06.104Z,99535.09
2023-09-09T16:33:34.575Z,99535.33
2023-09-09T16:36:05.025Z,99537.05
2023-09-09T16:38:34.023Z,99539.89
2023-09-09T16:41:03.251Z,99543.40
2023-09-09T16:43:31.555Z,99542.14
2023-09-09T16:45:59.860Z,99539.30
2023-09-09T16:48:28.058Z,99542.96
2023-09-09T16:50:56.467Z,99548.75
2023-09-09T16:53:24.647Z,99547.94
2023-09-09T16:55:52.981Z,99549.27
2023-09-09T16:58:21.344Z,99549.79
2023-09-09T17:00:50.213Z,99547.20
2023-09-09T17:03:18.880Z,99545.11
2023-09-09T17:05:47.570Z,99547.96
2023-09-09T17:08:15.897Z,99545.67
2023-09-09T17:10:44.212Z,99548.58
2023-09-09T17:13:12.469Z,99552.89
2023-09-09T17:15:42.185Z,99555.88
2023-09-09T17:18:11.091Z,99559.55
2023-09-09T17:20:39.626Z,99560.38
2023-09-09T17:23:07.831Z,99561.13
2023-09-09T17:25:36.513Z,99561.51
2023-09-09T17:28:05.878Z,99564.00
2023-09-09T17:30:34.080Z,99567.06
2023-09-09T17:33:02.304Z,99571.16
2023-09-09T17:35:30.650Z,99573.09
2023-09-09T17:37:58.904Z,99574.72
2023-09-09T17:40:27.101Z,99581.38
2023-09-09T17:42:55.398Z,99584.64
2023-09-09T17:45:23.631Z,99589.42
2023-09-09T17:47:51.927Z,99594.67
2023-09-09T17:50:20.212Z,99593.78
2023-09-09T17:52:49.019Z,99602.20
2023-09-09T17:55:17.404Z,99602.20
2023-09-09T17:57:45.817Z,99603.13
2023-09-09T18:00:14.347Z,99605.33
2023-09-09T18:02:46.180Z,99608.29
2023-09-09T18:05:16.285Z,99602.24
2023-09-09T18:07:44.946Z,99606.77
2023-09-09T18:10:14.428Z,99608.88
2023-09-09T18:12:42.659Z,99610.05
2023-09-09T18:15:11.102Z,99610.84
2023-09-09T18:17:39.593Z,99609.71
2023-09-09T18:20:08.455Z,99609.51
2023-09-09T18:22:39.037Z,99613.24
2023-09-09T18:25:07.432Z,99608.17
2023-09-09T18:27:38.746Z,99608.55
2023-09-09T18:30:09.260Z,99611.16
2023-09-09T18:32:38.859Z,99610.95
2023-09-09T18:35:09.632Z,99612.96
2023-09-09T18:37:38.018Z,99614.15
2023-09-09T18:40:07.081Z,99616.94
2023-09-09T18:42:35.443Z,99613.13
2023-09-09T18:45:04.070Z,99613.54
2023-09-09T18:47:32.447Z,99617.32
2023-09-09T18:50:01.312Z,99618.48
2023-09-09T18:52:29.750Z,99623.27
2023-09-09T18:54:59.142Z,99627.71
2023-09-09T18:57:27.273Z,99624.39
2023-09-09T18:59:55.445Z,99621.92
2023-09-09T19:02:24.447Z,99626.04
2023-09-09T19:04:53.360Z,99629.95
2023-09-09T19:07:32.306Z,99628.61
2023-09-09T19:10:00.986Z,99630.27
2023-09-09T19:12:29.388Z,99630.07
2023-09-09T19:14:57.823Z,99629.63
2023-09-09T19:17:28.577Z,99630.29
2023-09-09T19:20:01.996Z,99629.86
2023-09-09T19:22:30.634Z,99629.42
2023-09-09T19:24:59.091Z,99630.52
2023-09-09T19:27:28.593Z,99633.24
2023-09-09T19:29:56.835Z,99633.42
2023-09-09T19:32:25.228Z,99634.02
2023-09-09T19:34:53.728Z,99634.84
2023-09-09T19:37:22.137Z,99636.26
2023-09-09T19:39:51.285Z,99634.89
2023-09-09T19:42:19.480Z,99634.48
2023-09-09T19:44:47.882Z,99634.16
2023-09-09T19:47:16.474Z,99633.39
2023-09-09T19:49:44.929Z,99637.33
2023-09-09T19:52:13.270Z,99638.04
2023-09-09T19:54:41.441Z,99635.49
2023-09-09T19:57:09.624Z,99635.30
2023-09-09T19:59:37.860Z,99629.89
2023-09-09T20:02:06.865Z,99629.30
2023-09-09T20:04:35.446Z,99632.14
2023-09-09T20:07:03.917Z,99637.81
2023-09-09T20:09:32.301Z,99637.64
2023-09-09T20:12:00.517Z,99636.15
2023-09-09T20:14:28.699Z,99632.27
2023-09-09T20:16:57.105Z,99636.45
2023-09-09T20:19:25.460Z,99636.91
2023-09-09T20:21:53.649Z,99632.93
2023-09-09T20:24:22.491Z,99628.80
2023-09-09T20:26:50.716Z,99628.96
2023-09-09T20:29:18.857Z,99628.13
2023-09-09T20:31:48.697Z,99625.71
2023-09-09T20:34:17.109Z,99626.77
2023-09-09T20:36:45.529Z,99626.48
2023-09-09T20:39:13.909Z,99628.00
2023-09-09T20:41:47.233Z,99625.20
2023-09-09T20:44:15.599Z,99626.98
2023-09-09T20:46:44.594Z,99626.84
2023-09-09T20:49:12.950Z,99621.34
2023-09-09T20:51:41.342Z,99625.46
2023-09-09T20:54:09.588Z,99621.42
2023-09-09T20:56:37.814Z,99620.80
2023-09-09T20:59:07.321Z,99618.68
2023-09-09T21:01:36.407Z,99619.21
2023-09-09T21:04:05.209Z,99624.15
2023-09-09T21:06:33.643Z,99627.79
2023-09-09T21:09:01.836Z,99630.06
2023-09-09T21:11:30.063Z,99629.34
2023-09-09T21:13:58.383Z,99631.41
2023-09-09T21:16:27.764Z,99629.29
2023-09-09T21:18:56.111Z,99628.29
2023-09-09T21:21:24.403Z,99628.92
2023-09-09T21:23:52.719Z,99628.70
2023-09-09T21:26:21.648Z,99621.98
2023-09-09T21:28:50.110Z,99621.86
2023-09-09T21:31:18.365Z,99621.91
2023-09-09T21:33:46.623Z,99621.80
2023-09-09T21:36:14.970Z,99619.50
2023-09-09T21:38:43.111Z,99619.55
2023-09-09T21:41:13.284Z,99618.02
2023-09-09T21:43:41.735Z,99616.54
2023-09-09T21:46:09.993Z,99616.27
2023-09-09T21:48:38.478Z,99611.55
2023-09-09T21:51:07.140Z,99610.70
2023-09-09T21:53:35.256Z,99613.41
2023-09-09T21:56:05.015Z,99609.95
2023-09-09T21:58:33.851Z,99610.56
2023-09-09T22:01:09.529Z,99607.30
2023-09-09T22:03:38.317Z,99608.27
2023-09-09T22:06:07.006Z,99606.68
2023-09-09T22:08:36.262Z,99602.70
2023-09-09T22:11:07.167Z,99604.65
2023-09-09T22:13:36.232Z,99604.48
2023-09-09T22:16:08.799Z,99602.77
2023-09-09T22:18:38.251Z,99599.76
2023-09-09T22:21:08.167Z,99596.49
2023-09-09T22:23:37.461Z,99598.66
2023-09-09T22:26:28.791Z,99598.59
2023-09-09T22:28:57.740Z,99595.21
2023-09-09T22:31:26.094Z,99592.41
2023-09-09T22:33:55.224Z,99595.10
2023-09-09T22:36:23.414Z,99594.27
2023-09-09T22:38:52.730Z,99590.77
2023-09-09T22:41:21.109Z,99589.02
2023-09-09T22:43:49.554Z,99587.48
2023-09-09T22:46:17.994Z,99588.25
2023-09-09T22:48:46.264Z,99587.73
2023-09-09T22:51:14.594Z,99589.05
2023-09-09T22:53:42.848Z,99591.60
2023-09-09T22:56:11.093Z,99594.17
2023-09-09T22:58:39.931Z,99593.37
2023-09-09T23:01:08.526Z,99593.35
2023-09-09T23:03:36.757Z,99593.96
2023-09-09T23:06:06.345Z,99595.91
2023-09-09T23:08:34.728Z,99596.78
2023-09-09T23:11:14.573Z,99594.85
2023-09-09T23:13:43.132Z,99593.65
2023-09-09T23:16:11.516Z,99593.91
2023-09-09T23:18:40.076Z,99593.70
2023-09-09T23:21:08.697Z,99591.58
2023-09-09T23:23:39.860Z,99591.98
2023-09-09T23:26:09.188Z,99588.37
2023-09-09T23:28:40.331Z,99585.63
2023-09-09T23:31:09.272Z,99585.77
2023-09-09T23:33:37.540Z,99585.52
2023-09-09T23:36:06.957Z,99580.15
2023-09-09T23:38:35.253Z,99574.44
2023-09-09T23:41:04.040Z,99570.34
2023-09-09T23:43:32.434Z,99570.30
2023-09-09T23:46:00.849Z,99568.39
2023-09-09T23:48:30.084Z,99570.83
2023-09-09T23:51:01.307Z,99569.09
2023-09-09T23:53:29.979Z,99569.81
2023-09-09T23:55:58.338Z,99572.40
2023-09-09T23:58:26.585Z,99569.92
